Time;durP1;ratioP1;P1;durP2;ratioP2;P2;SDS_P1;SDS_P2;PMS_P1;PMS_P2;Temp;Humidity;BMP_temperature;BMP_pressure;BME280_temperature;BME280_humidity;BME280_pressure;Samples;Min_cycle;Max_cycle;Signal;HPM_P1;HPM_P2
2021/10/19 00:01:20;;;;;;;77.00;37.03;;;9.50;99.90;;;;;;4985415;28;20058;-63
2021/10/19 00:03:47;;;;;;;71.38;37.17;;;9.60;99.90;;;;;;4975661;28;20123;-65
2021/10/19 00:06:14;;;;;;;75.07;38.35;;;9.60;99.90;;;;;;4987097;28;20291;-65
2021/10/19 00:08:41;;;;;;;69.70;36.58;;;9.50;99.90;;;;;;5009053;28;20549;-66
2021/10/19 00:11:09;;;;;;;77.25;36.80;;;9.60;99.90;;;;;;5013095;28;20053;-66
2021/10/19 00:13:36;;;;;;;77.63;36.83;;;9.60;99.90;;;;;;4995585;28;20848;-67
2021/10/19 00:16:05;;;;;;;74.22;37.58;;;9.60;99.90;;;;;;4996411;28;20052;-67
2021/10/19 00:18:32;;;;;;;83.65;39.20;;;9.50;99.90;;;;;;4999997;28;20124;-65
2021/10/19 00:20:59;;;;;;;75.07;38.72;;;9.60;99.90;;;;;;4995364;28;20042;-65
2021/10/19 00:23:25;;;;;;;78.32;38.45;;;9.60;99.90;;;;;;5000200;28;20073;-67
2021/10/19 00:25:53;;;;;;;76.32;37.17;;;9.50;99.90;;;;;;4998074;28;20298;-68
2021/10/19 00:28:20;;;;;;;74.38;39.00;;;9.60;99.90;;;;;;4996652;28;20050;-64
2021/10/19 00:30:47;;;;;;;72.30;37.92;;;9.60;99.90;;;;;;5011627;28;20532;-64
2021/10/19 00:33:14;;;;;;;74.82;39.10;;;9.60;99.90;;;;;;5002506;28;20147;-66
2021/10/19 00:35:41;;;;;;;77.28;38.45;;;9.50;99.90;;;;;;4994903;28;20518;-68
2021/10/19 00:38:08;;;;;;;83.05;39.53;;;9.50;99.90;;;;;;5000196;28;20057;-66
2021/10/19 00:40:35;;;;;;;73.53;38.10;;;9.60;99.90;;;;;;4977287;28;20046;-65
2021/10/19 00:43:06;;;;;;;71.25;35.92;;;9.50;99.90;;;;;;4998068;28;20056;-65
2021/10/19 00:45:34;;;;;;;78.15;38.58;;;9.60;99.90;;;;;;4974807;28;20546;-66
2021/10/19 00:48:05;;;;;;;75.55;37.78;;;9.50;99.90;;;;;;5012693;28;20189;-64
2021/10/19 00:50:32;;;;;;;80.88;37.88;;;9.60;99.90;;;;;;5013199;28;20057;-64
2021/10/19 00:52:59;;;;;;;79.95;37.45;;;9.60;99.90;;;;;;5019381;28;20068;-65
2021/10/19 00:55:26;;;;;;;82.10;38.33;;;9.60;99.90;;;;;;4993050;28;20414;-65
2021/10/19 00:57:53;;;;;;;78.50;38.65;;;9.70;99.90;;;;;;4998294;28;20050;-65
2021/10/19 01:00:20;;;;;;;74.53;36.17;;;9.70;99.90;;;;;;5015787;28;20050;-64
2021/10/19 01:02:47;;;;;;;78.57;36.10;;;9.60;99.90;;;;;;5004996;28;20045;-65
2021/10/19 01:05:14;;;;;;;78.05;39.67;;;9.60;99.90;;;;;;5004514;28;20205;-66
2021/10/19 01:07:42;;;;;;;85.80;39.75;;;9.60;99.90;;;;;;5007277;28;20056;-66
2021/10/19 01:10:10;;;;;;;76.95;37.63;;;9.70;99.90;;;;;;4999629;28;20391;-65
2021/10/19 01:12:38;;;;;;;82.40;39.63;;;9.60;99.90;;;;;;5007117;28;20048;-64
2021/10/19 01:15:10;;;;;;;79.82;40.42;;;9.70;99.90;;;;;;4998639;28;20417;-66
2021/10/19 01:17:45;;;;;;;79.03;38.92;;;9.70;99.90;;;;;;4995405;28;20498;-65
2021/10/19 01:20:26;;;;;;;75.88;38.00;;;9.60;99.90;;;;;;5005049;28;20510;-65
2021/10/19 01:22:54;;;;;;;74.45;37.33;;;9.70;99.90;;;;;;5005874;28;20061;-66
2021/10/19 01:25:25;;;;;;;80.40;37.83;;;9.60;99.90;;;;;;5023225;28;20391;-64
2021/10/19 01:27:59;;;;;;;78.97;39.83;;;9.70;99.90;;;;;;5019786;28;20037;-63
2021/10/19 01:30:26;;;;;;;77.05;36.50;;;9.60;99.90;;;;;;4997932;28;20632;-64
2021/10/19 01:32:54;;;;;;;78.25;37.90;;;9.60;99.90;;;;;;5016792;28;20037;-66
2021/10/19 01:35:33;;;;;;;83.80;38.90;;;9.60;99.90;;;;;;5002452;28;20698;-65
2021/10/19 01:38:01;;;;;;;74.47;37.95;;;9.60;99.90;;;;;;5018065;28;20058;-64
2021/10/19 01:40:28;;;;;;;77.95;39.50;;;9.60;99.90;;;;;;5012950;28;20057;-66
2021/10/19 01:42:55;;;;;;;88.75;38.65;;;9.50;99.90;;;;;;5022870;28;20046;-65
2021/10/19 01:45:22;;;;;;;79.28;40.03;;;9.50;99.90;;;;;;4998339;28;20410;-65
2021/10/19 01:47:49;;;;;;;78.75;37.80;;;9.50;99.90;;;;;;4990940;28;20041;-67
2021/10/19 01:50:17;;;;;;;81.53;38.55;;;9.50;99.90;;;;;;5001860;28;20037;-66
2021/10/19 01:52:45;;;;;;;83.95;37.42;;;9.50;99.90;;;;;;4996745;28;20056;-67
2021/10/19 01:55:12;;;;;;;80.70;38.75;;;9.60;99.90;;;;;;4998459;28;20065;-66
2021/10/19 01:57:39;;;;;;;82.93;38.00;;;9.60;99.90;;;;;;4999714;28;20096;-65
2021/10/19 02:00:09;;;;;;;77.53;36.97;;;9.60;99.90;;;;;;4958337;28;20140;-66
2021/10/19 02:02:40;;;;;;;78.97;37.90;;;9.60;99.90;;;;;;5013001;28;20538;-64
2021/10/19 02:05:10;;;;;;;78.75;35.60;;;9.60;99.90;;;;;;5015824;28;20060;-66
2021/10/19 02:07:38;;;;;;;73.55;37.13;;;9.60;99.90;;;;;;5002407;28;20061;-66
2021/10/19 02:10:07;;;;;;;78.82;35.97;;;9.70;99.90;;;;;;4978058;28;20054;-67
2021/10/19 02:12:34;;;;;;;77.30;37.70;;;9.70;99.90;;;;;;5000734;28;20391;-67
2021/10/19 02:15:01;;;;;;;79.05;39.03;;;9.70;99.90;;;;;;4980109;28;20042;-66
2021/10/19 02:17:27;;;;;;;70.88;35.67;;;9.60;99.90;;;;;;4977232;28;20061;-66
2021/10/19 02:19:54;;;;;;;75.07;36.05;;;9.60;99.90;;;;;;4987828;28;20232;-65
2021/10/19 02:22:21;;;;;;;71.15;35.70;;;9.70;99.90;;;;;;4995554;28;20050;-65
2021/10/19 02:24:48;;;;;;;76.72;37.55;;;9.70;99.90;;;;;;5002797;28;20057;-65
2021/10/19 02:27:15;;;;;;;73.20;37.42;;;9.70;99.90;;;;;;4985648;28;20212;-65
2021/10/19 02:29:41;;;;;;;70.20;35.70;;;9.70;99.90;;;;;;4995903;28;20132;-66
2021/10/19 02:32:08;;;;;;;73.03;34.58;;;9.80;99.90;;;;;;4977479;28;20046;-66
2021/10/19 02:34:35;;;;;;;76.30;35.10;;;9.70;99.90;;;;;;4979144;28;20076;-65
2021/10/19 02:37:02;;;;;;;69.97;34.20;;;9.80;99.90;;;;;;4991494;28;20042;-67
2021/10/19 02:39:29;;;;;;;72.00;37.58;;;9.80;99.90;;;;;;4997365;28;20050;-64
2021/10/19 02:41:56;;;;;;;68.63;33.20;;;9.80;99.90;;;;;;4993660;28;20045;-66
2021/10/19 02:44:23;;;;;;;72.88;35.78;;;9.80;99.90;;;;;;4998003;28;20568;-66
2021/10/19 02:46:49;;;;;;;66.63;32.88;;;9.70;99.90;;;;;;4985407;28;20054;-65
2021/10/19 02:49:16;;;;;;;70.22;34.70;;;9.80;99.90;;;;;;4983390;28;20076;-69
2021/10/19 02:51:43;;;;;;;65.40;34.17;;;9.70;99.90;;;;;;4992557;28;22102;-70
2021/10/19 02:54:10;;;;;;;74.07;34.92;;;9.80;99.90;;;;;;5020125;28;20046;-68
2021/10/19 02:56:39;;;;;;;65.43;33.88;;;9.90;99.90;;;;;;4992046;28;20117;-69
2021/10/19 02:59:06;;;;;;;70.07;34.42;;;9.90;99.90;;;;;;4997545;28;20050;-70
2021/10/19 03:01:33;;;;;;;65.45;34.05;;;9.90;99.90;;;;;;4998598;28;20603;-69
2021/10/19 03:04:00;;;;;;;73.53;35.83;;;10.00;99.90;;;;;;5023570;23;20054;-67
2021/10/19 03:06:27;;;;;;;67.40;33.58;;;10.00;99.90;;;;;;5000653;28;20046;-68
2021/10/19 03:08:54;;;;;;;69.43;35.00;;;10.00;99.90;;;;;;4998464;28;20123;-67
2021/10/19 03:11:21;;;;;;;73.35;35.50;;;10.00;99.90;;;;;;4996494;28;20050;-69
2021/10/19 03:13:48;;;;;;;68.70;34.35;;;10.10;99.90;;;;;;4979095;28;20042;-67
2021/10/19 03:16:15;;;;;;;64.35;32.47;;;10.10;99.90;;;;;;4979047;28;20449;-69
2021/10/19 03:18:42;;;;;;;68.47;34.80;;;10.10;99.90;;;;;;4980044;28;20682;-68
2021/10/19 03:21:09;;;;;;;67.15;34.22;;;10.10;99.90;;;;;;4997850;28;20033;-69
2021/10/19 03:23:36;;;;;;;66.47;33.05;;;10.10;99.90;;;;;;4978198;28;20042;-68
2021/10/19 03:26:03;;;;;;;63.30;31.80;;;10.10;99.90;;;;;;4970783;28;20176;-68
2021/10/19 03:28:31;;;;;;;70.45;35.03;;;10.10;99.90;;;;;;4985956;28;20088;-68
2021/10/19 03:30:57;;;;;;;68.13;34.45;;;10.10;99.90;;;;;;4999429;28;20050;-68
2021/10/19 03:33:25;;;;;;;63.70;32.63;;;10.10;99.90;;;;;;4996003;28;20046;-68
2021/10/19 03:35:52;;;;;;;62.67;32.72;;;10.10;99.90;;;;;;5001056;28;20128;-69
2021/10/19 03:38:19;;;;;;;66.82;34.10;;;10.20;99.90;;;;;;4993599;28;20052;-67
2021/10/19 03:40:47;;;;;;;65.18;34.35;;;10.20;99.90;;;;;;5000545;28;20120;-68
2021/10/19 03:43:14;;;;;;;64.22;32.95;;;10.20;99.90;;;;;;4996735;28;20057;-67
2021/10/19 03:45:41;;;;;;;61.33;32.35;;;10.30;99.90;;;;;;4999396;28;20076;-68
2021/10/19 03:48:08;;;;;;;62.65;33.10;;;10.20;99.90;;;;;;5002514;28;20045;-68
2021/10/19 03:50:34;;;;;;;58.72;33.65;;;10.40;99.90;;;;;;4967731;28;20056;-68
2021/10/19 03:53:01;;;;;;;63.95;32.35;;;10.30;99.90;;;;;;4999099;28;20649;-68
2021/10/19 03:55:28;;;;;;;64.68;33.83;;;10.30;99.90;;;;;;4994123;28;20641;-68
2021/10/19 03:57:55;;;;;;;66.03;34.03;;;10.30;99.90;;;;;;5002634;28;20042;-68
2021/10/19 04:00:22;;;;;;;72.13;34.58;;;10.30;99.90;;;;;;5012213;28;20111;-67
2021/10/19 04:02:49;;;;;;;61.88;32.20;;;10.30;99.90;;;;;;4982099;28;20466;-67
2021/10/19 04:05:16;;;;;;;60.50;31.88;;;10.30;99.90;;;;;;4999057;28;20116;-68
2021/10/19 04:07:45;;;;;;;59.85;32.17;;;10.20;99.90;;;;;;5011655;28;20289;-67
2021/10/19 04:10:14;;;;;;;63.33;33.67;;;10.20;99.90;;;;;;5006163;28;20149;-68
2021/10/19 04:12:42;;;;;;;59.50;32.58;;;10.20;99.90;;;;;;5003198;28;20484;-68
2021/10/19 04:15:09;;;;;;;63.15;33.17;;;10.20;99.90;;;;;;4981240;28;20077;-69
2021/10/19 04:17:36;;;;;;;64.80;32.70;;;10.30;99.90;;;;;;4983219;28;20034;-69
2021/10/19 04:20:04;;;;;;;64.95;32.50;;;10.30;99.90;;;;;;4986798;28;20042;-69
2021/10/19 04:22:31;;;;;;;60.42;31.10;;;10.30;99.90;;;;;;4998446;28;20053;-69
2021/10/19 04:24:59;;;;;;;64.85;34.30;;;10.30;99.90;;;;;;4980681;28;20081;-69
2021/10/19 04:27:26;;;;;;;66.70;32.78;;;10.40;99.90;;;;;;5001358;28;20057;-68
2021/10/19 04:29:53;;;;;;;55.67;30.58;;;10.40;99.90;;;;;;5004416;28;20049;-69
2021/10/19 04:32:19;;;;;;;61.50;30.65;;;10.50;99.90;;;;;;5002093;28;20545;-68
2021/10/19 04:34:47;;;;;;;55.72;30.80;;;10.50;99.90;;;;;;5004579;28;20126;-69
2021/10/19 04:37:13;;;;;;;60.58;32.47;;;10.50;99.90;;;;;;5029594;28;20481;-69
2021/10/19 04:39:40;;;;;;;55.35;29.50;;;10.50;99.90;;;;;;5001241;28;20057;-69
2021/10/19 04:42:07;;;;;;;53.05;30.40;;;10.50;99.90;;;;;;4987545;28;20038;-68
2021/10/19 04:44:34;;;;;;;60.42;32.85;;;10.60;99.90;;;;;;5004178;28;20050;-67
2021/10/19 04:47:01;;;;;;;50.15;29.52;;;10.50;99.90;;;;;;4986480;28;20053;-67
2021/10/19 04:49:28;;;;;;;62.80;29.83;;;10.40;99.90;;;;;;5008356;28;20046;-69
2021/10/19 04:51:55;;;;;;;54.95;29.80;;;10.40;99.90;;;;;;5000610;28;20057;-67
2021/10/19 04:54:21;;;;;;;53.05;28.55;;;10.40;99.90;;;;;;5003661;28;20069;-68
2021/10/19 04:56:48;;;;;;;62.67;32.50;;;10.40;99.90;;;;;;5001465;28;20153;-69
2021/10/19 04:59:15;;;;;;;57.30;30.92;;;10.40;99.90;;;;;;4991683;28;20498;-69
2021/10/19 05:01:42;;;;;;;57.00;29.98;;;10.30;99.90;;;;;;4999322;28;20518;-67
2021/10/19 05:04:16;;;;;;;56.05;30.25;;;10.30;99.90;;;;;;4999633;28;20141;-68
2021/10/19 05:06:43;;;;;;;52.58;29.38;;;10.40;99.90;;;;;;5008415;28;20060;-69
2021/10/19 05:09:12;;;;;;;48.78;28.75;;;10.40;99.90;;;;;;4997715;28;20133;-69
2021/10/19 05:11:39;;;;;;;48.30;28.45;;;10.50;99.90;;;;;;4968568;28;20054;-68
2021/10/19 05:14:06;;;;;;;52.60;30.10;;;10.50;99.90;;;;;;5006167;28;20050;-68
2021/10/19 05:16:33;;;;;;;51.15;27.30;;;10.60;99.90;;;;;;5014214;28;20060;-69
2021/10/19 05:19:00;;;;;;;50.72;27.95;;;10.50;99.90;;;;;;5009916;28;20042;-68
2021/10/19 05:21:28;;;;;;;48.22;28.15;;;10.50;99.90;;;;;;5002926;28;20041;-69
2021/10/19 05:23:54;;;;;;;50.97;28.30;;;10.50;99.90;;;;;;4998448;28;20042;-69
2021/10/19 05:26:21;;;;;;;50.20;28.73;;;10.50;99.90;;;;;;5003905;28;20042;-69
2021/10/19 05:28:48;;;;;;;57.25;29.77;;;10.60;99.90;;;;;;5015040;28;20056;-69
2021/10/19 05:31:15;;;;;;;56.70;29.05;;;10.60;99.90;;;;;;5006146;28;20395;-69
2021/10/19 05:33:41;;;;;;;51.25;28.27;;;10.60;99.90;;;;;;5003600;28;20442;-69
2021/10/19 05:36:08;;;;;;;49.58;27.85;;;10.60;99.90;;;;;;5007294;28;20568;-69
2021/10/19 05:38:35;;;;;;;48.25;26.85;;;10.60;99.90;;;;;;5009255;28;20045;-68
2021/10/19 05:41:03;;;;;;;55.72;28.52;;;10.60;99.90;;;;;;4998918;28;20573;-69
2021/10/19 05:43:30;;;;;;;50.58;31.45;;;10.50;99.90;;;;;;4984319;28;20104;-68
2021/10/19 05:45:57;;;;;;;51.13;27.15;;;10.50;99.90;;;;;;5009785;28;20072;-68
2021/10/19 05:48:24;;;;;;;53.75;29.73;;;10.50;99.90;;;;;;5011165;28;20073;-67
2021/10/19 05:50:50;;;;;;;50.63;28.35;;;10.50;99.90;;;;;;5004067;28;20048;-69
2021/10/19 05:53:17;;;;;;;51.33;29.33;;;10.50;99.90;;;;;;4981694;28;20076;-69
2021/10/19 05:55:44;;;;;;;53.50;29.65;;;10.50;99.90;;;;;;4990109;28;20454;-69
2021/10/19 05:58:11;;;;;;;56.40;29.17;;;10.50;99.90;;;;;;5009090;28;20064;-69
2021/10/19 06:00:49;;;;;;;55.42;30.63;;;10.60;99.90;;;;;;5002739;28;20045;-69
2021/10/19 06:03:16;;;;;;;54.53;29.08;;;10.60;99.90;;;;;;5005985;28;20053;-69
2021/10/19 06:05:43;;;;;;;52.72;28.98;;;10.60;99.90;;;;;;4995497;28;20057;-69
2021/10/19 06:08:09;;;;;;;49.13;29.33;;;10.60;99.90;;;;;;5004422;28;20049;-69
2021/10/19 06:10:36;;;;;;;50.63;28.70;;;10.60;99.90;;;;;;5006843;28;20077;-69
2021/10/19 06:13:03;;;;;;;59.15;29.42;;;10.70;99.90;;;;;;4983811;28;20057;-69
2021/10/19 06:15:30;;;;;;;55.28;29.58;;;10.60;99.90;;;;;;5009282;28;20524;-69
2021/10/19 06:17:56;;;;;;;50.17;28.08;;;10.70;99.90;;;;;;5005763;28;20054;-69
2021/10/19 06:20:23;;;;;;;55.15;29.33;;;10.60;99.90;;;;;;5005453;28;20060;-68
2021/10/19 06:22:50;;;;;;;53.75;27.90;;;10.70;99.90;;;;;;4999394;28;20037;-69
2021/10/19 06:25:17;;;;;;;50.80;27.92;;;10.70;99.90;;;;;;5006509;28;20076;-68
2021/10/19 06:27:44;;;;;;;48.72;27.20;;;10.70;99.90;;;;;;5003387;28;20056;-69
2021/10/19 06:30:11;;;;;;;49.08;27.58;;;10.70;99.90;;;;;;4964146;28;20053;-68
2021/10/19 06:32:40;;;;;;;50.45;27.20;;;10.60;99.90;;;;;;4999048;28;20064;-69
2021/10/19 06:35:09;;;;;;;53.00;29.20;;;10.60;99.90;;;;;;4998503;28;20092;-69
2021/10/19 06:37:39;;;;;;;53.30;29.58;;;10.70;99.90;;;;;;4996747;28;20042;-69
2021/10/19 06:40:07;;;;;;;50.95;27.75;;;10.70;99.90;;;;;;5022002;28;20041;-69
2021/10/19 06:42:34;;;;;;;47.55;27.65;;;10.70;99.90;;;;;;5001009;28;20115;-67
2021/10/19 06:45:01;;;;;;;55.13;30.77;;;10.70;99.90;;;;;;4999614;28;20050;-68
2021/10/19 06:47:32;;;;;;;49.28;27.38;;;10.60;99.90;;;;;;5004037;28;20112;-69
2021/10/19 06:50:00;;;;;;;57.67;29.98;;;10.50;99.90;;;;;;5001338;28;20050;-69
2021/10/19 06:52:31;;;;;;;53.80;29.48;;;10.50;99.90;;;;;;5000124;28;20057;-69
2021/10/19 06:54:58;;;;;;;52.85;29.60;;;10.40;99.90;;;;;;4996596;28;20046;-69
2021/10/19 06:57:30;;;;;;;53.20;28.67;;;10.40;99.90;;;;;;5006231;28;20049;-69
2021/10/19 07:00:00;;;;;;;50.88;28.63;;;10.40;99.90;;;;;;4997300;28;20037;-69
2021/10/19 07:02:27;;;;;;;54.25;28.48;;;10.50;99.90;;;;;;5001760;28;20056;-68
2021/10/19 07:04:53;;;;;;;55.10;28.75;;;10.40;99.90;;;;;;5011752;28;20042;-69
2021/10/19 07:07:20;;;;;;;54.80;30.52;;;10.50;99.90;;;;;;4990440;28;20140;-69
2021/10/19 07:09:47;;;;;;;55.28;31.00;;;10.50;99.90;;;;;;5006374;28;20107;-69
2021/10/19 07:12:14;;;;;;;52.38;28.10;;;10.50;99.90;;;;;;5001901;28;20057;-68
2021/10/19 07:14:43;;;;;;;53.58;28.60;;;10.60;99.90;;;;;;5003268;28;20053;-69
2021/10/19 07:17:10;;;;;;;50.92;28.10;;;10.50;99.90;;;;;;5006813;28;20049;-69
2021/10/19 07:19:38;;;;;;;51.75;28.73;;;10.50;99.90;;;;;;5006784;28;20042;-69
2021/10/19 07:22:06;;;;;;;43.88;26.48;;;10.60;99.90;;;;;;4998375;28;20069;-69
2021/10/19 07:24:33;;;;;;;46.40;27.63;;;10.60;99.90;;;;;;5000976;28;20050;-69
2021/10/19 07:27:00;;;;;;;49.08;27.45;;;10.70;99.90;;;;;;4999706;28;20133;-69
2021/10/19 07:29:26;;;;;;;47.63;27.85;;;10.60;99.90;;;;;;4999847;28;20050;-69
2021/10/19 07:31:53;;;;;;;52.55;29.67;;;10.70;99.90;;;;;;5003400;28;20045;-70
2021/10/19 07:34:20;;;;;;;47.58;26.85;;;10.80;99.90;;;;;;5008894;28;20231;-68
2021/10/19 07:36:47;;;;;;;45.88;26.45;;;10.90;99.90;;;;;;5016465;28;20529;-69
2021/10/19 07:39:14;;;;;;;45.17;26.13;;;10.90;99.90;;;;;;5000872;28;20042;-70
2021/10/19 07:41:41;;;;;;;44.78;26.38;;;11.00;99.90;;;;;;4996874;28;20088;-67
2021/10/19 07:44:08;;;;;;;44.55;26.27;;;11.00;99.90;;;;;;4994955;28;20525;-68
2021/10/19 07:46:35;;;;;;;43.65;24.27;;;11.00;99.90;;;;;;5002819;28;20076;-69
2021/10/19 07:49:03;;;;;;;49.63;25.33;;;10.90;99.90;;;;;;5004066;28;20135;-70
2021/10/19 07:51:30;;;;;;;46.90;25.70;;;10.90;99.90;;;;;;5009599;28;20503;-69
2021/10/19 07:53:57;;;;;;;42.38;24.27;;;11.00;99.90;;;;;;5001458;28;20095;-71
2021/10/19 07:56:23;;;;;;;40.30;23.88;;;11.00;99.90;;;;;;5003160;28;20060;-71
2021/10/19 07:58:50;;;;;;;41.58;23.17;;;11.00;99.90;;;;;;4999339;28;20140;-71
2021/10/19 08:01:18;;;;;;;41.08;23.73;;;11.20;99.90;;;;;;4994835;28;20141;-71
2021/10/19 08:03:45;;;;;;;38.28;21.25;;;11.20;99.90;;;;;;4997131;28;20073;-71
2021/10/19 08:06:12;;;;;;;38.10;22.23;;;11.20;99.90;;;;;;4997672;28;20034;-71
2021/10/19 08:08:39;;;;;;;38.33;21.60;;;11.30;99.90;;;;;;5000889;28;20049;-72
2021/10/19 08:11:06;;;;;;;37.67;21.25;;;11.30;99.90;;;;;;4985403;28;20690;-71
2021/10/19 08:13:33;;;;;;;41.13;23.30;;;11.40;99.90;;;;;;5000661;28;20053;-71
2021/10/19 08:16:02;;;;;;;38.63;21.83;;;11.40;99.90;;;;;;5003111;28;20684;-71
2021/10/19 08:18:29;;;;;;;38.97;22.38;;;11.40;99.90;;;;;;5008450;28;20520;-68
2021/10/19 08:21:02;;;;;;;37.08;22.45;;;11.40;99.90;;;;;;5007871;28;20065;-68
2021/10/19 08:23:29;;;;;;;41.47;24.00;;;11.30;99.90;;;;;;5017078;28;20128;-70
2021/10/19 08:25:56;;;;;;;39.30;22.63;;;11.40;99.90;;;;;;5004999;28;20056;-70
2021/10/19 08:28:25;;;;;;;45.88;26.10;;;11.20;99.90;;;;;;4998635;28;20054;-69
2021/10/19 08:30:53;;;;;;;45.97;26.33;;;11.20;99.90;;;;;;4977135;28;20112;-69
2021/10/19 08:33:20;;;;;;;70.22;38.45;;;11.10;99.90;;;;;;5001980;28;20100;-69
2021/10/19 08:35:48;;;;;;;59.42;30.80;;;11.10;99.90;;;;;;5003416;28;20077;-69
2021/10/19 08:38:15;;;;;;;47.75;27.80;;;11.20;99.90;;;;;;4989532;28;20530;-69
2021/10/19 08:40:43;;;;;;;42.45;25.48;;;11.10;99.90;;;;;;5003640;28;20037;-71
2021/10/19 08:43:11;;;;;;;54.65;29.10;;;11.10;99.90;;;;;;5000301;28;20133;-71
2021/10/19 08:45:37;;;;;;;52.13;28.85;;;11.20;99.90;;;;;;5000494;28;20046;-69
2021/10/19 08:48:07;;;;;;;53.85;31.45;;;11.10;99.90;;;;;;5002886;28;20053;-69
2021/10/19 08:50:34;;;;;;;53.72;29.08;;;11.10;99.90;;;;;;5006822;28;20064;-69
2021/10/19 08:53:01;;;;;;;51.63;28.85;;;11.20;99.90;;;;;;5002213;28;20053;-70
2021/10/19 08:55:28;;;;;;;52.55;28.55;;;11.30;99.90;;;;;;5008703;28;20085;-69
2021/10/19 08:58:01;;;;;;;55.83;30.70;;;11.30;99.90;;;;;;5007365;28;20633;-70
2021/10/19 09:00:29;;;;;;;50.38;29.98;;;11.30;99.90;;;;;;4983150;28;20055;-70
2021/10/19 09:02:56;;;;;;;52.92;32.50;;;11.30;99.90;;;;;;4997595;28;20058;-69
2021/10/19 09:05:26;;;;;;;51.15;29.35;;;11.20;99.90;;;;;;5059380;23;20056;-82
2021/10/19 09:08:12;;;;;;;51.15;29.13;;;11.20;99.90;;;;;;5030232;28;20102;-81
2021/10/19 09:10:41;;;;;;;45.38;28.65;;;11.30;99.90;;;;;;5008432;28;20641;-82
2021/10/19 09:13:16;;;;;;;43.60;24.27;;;11.40;99.90;;;;;;5009573;28;20045;-82
2021/10/19 09:15:47;;;;;;;43.40;25.35;;;11.30;99.90;;;;;;5014357;28;20057;-81
2021/10/19 09:18:24;;;;;;;42.22;21.50;;;11.30;99.90;;;;;;5029137;28;20144;-80
2021/10/19 09:20:54;;;;;;;37.03;21.13;;;11.40;99.90;;;;;;5015546;28;20045;-82
2021/10/19 09:23:25;;;;;;;38.83;22.38;;;11.50;99.90;;;;;;5046434;28;20644;-81
2021/10/19 09:25:54;;;;;;;40.63;22.42;;;11.50;99.90;;;;;;5013230;28;20446;-80
2021/10/19 09:28:39;;;;;;;38.08;21.77;;;11.60;99.90;;;;;;5027400;28;20509;-82
2021/10/19 09:31:07;;;;;;;37.35;20.70;;;11.60;99.90;;;;;;5015607;28;20053;-82
2021/10/19 09:33:34;;;;;;;37.13;21.20;;;11.60;99.90;;;;;;5033138;28;20059;-82
2021/10/19 09:36:02;;;;;;;56.15;35.72;;;11.60;99.90;;;;;;5028173;28;20049;-81
2021/10/19 09:38:29;;;;;;;56.97;31.17;;;11.60;99.90;;;;;;5026640;28;20064;-81
2021/10/19 09:40:58;;;;;;;42.50;22.63;;;11.60;99.90;;;;;;5029343;28;20451;-81
2021/10/19 09:43:30;;;;;;;34.38;20.73;;;11.60;99.90;;;;;;5027150;28;20037;-81
2021/10/19 09:46:03;;;;;;;38.47;26.92;;;11.60;99.90;;;;;;5019668;28;20432;-80
2021/10/19 09:48:33;;;;;;;40.25;25.75;;;11.70;99.90;;;;;;5048416;28;20107;-80
2021/10/19 09:51:02;;;;;;;33.92;23.92;;;11.70;99.90;;;;;;5028694;28;20045;-80
2021/10/19 09:53:30;;;;;;;32.08;20.98;;;11.60;99.90;;;;;;5031594;28;20048;-81
2021/10/19 09:55:58;;;;;;;26.05;17.38;;;11.50;99.90;;;;;;5033236;28;20060;-81
2021/10/19 09:58:28;;;;;;;28.67;19.80;;;11.50;99.90;;;;;;5030205;28;20045;-81
2021/10/19 10:00:55;;;;;;;37.90;28.55;;;11.50;99.90;;;;;;5029806;28;20518;-81
2021/10/19 10:03:23;;;;;;;27.67;17.35;;;11.50;99.90;;;;;;5028455;28;20099;-81
2021/10/19 10:05:51;;;;;;;34.17;23.25;;;11.50;99.90;;;;;;5027466;28;20041;-80
2021/10/19 10:08:20;;;;;;;31.55;20.33;;;11.60;99.90;;;;;;5019552;28;20434;-82
2021/10/19 10:10:53;;;;;;;23.70;16.75;;;11.60;99.90;;;;;;5030193;28;20037;-78
2021/10/19 10:13:20;;;;;;;22.02;14.82;;;11.50;99.90;;;;;;5031115;28;20080;-81
2021/10/19 10:15:48;;;;;;;22.60;15.88;;;11.50;99.90;;;;;;5008230;28;20079;-81
2021/10/19 10:18:15;;;;;;;22.98;16.42;;;11.50;99.90;;;;;;5032999;28;20045;-80
2021/10/19 10:20:49;;;;;;;25.63;16.27;;;11.60;99.90;;;;;;5009037;28;20118;-81
2021/10/19 10:23:25;;;;;;;23.47;15.87;;;11.50;99.90;;;;;;5032666;28;20203;-82
2021/10/19 10:25:55;;;;;;;18.00;12.90;;;11.60;99.90;;;;;;5035284;28;20099;-82
2021/10/19 10:28:31;;;;;;;19.33;14.02;;;11.60;99.90;;;;;;5015053;28;20454;-80
2021/10/19 10:31:07;;;;;;;21.48;14.40;;;11.60;99.90;;;;;;5034578;28;20048;-82
2021/10/19 10:33:39;;;;;;;19.75;13.13;;;11.50;99.90;;;;;;5060174;28;20076;-82
2021/10/19 10:36:08;;;;;;;21.10;14.18;;;11.60;99.90;;;;;;5021142;28;20718;-82
2021/10/19 10:38:37;;;;;;;21.33;15.63;;;11.60;99.90;;;;;;5037103;28;20449;-80
2021/10/19 10:41:15;;;;;;;21.00;15.73;;;11.60;99.90;;;;;;5034155;28;20049;-82
2021/10/19 10:43:43;;;;;;;23.42;17.88;;;11.60;99.90;;;;;;5048739;28;20053;-81
2021/10/19 10:46:16;;;;;;;37.70;29.10;;;11.60;99.90;;;;;;5013822;28;20045;-80
2021/10/19 10:48:43;;;;;;;28.45;21.08;;;11.50;99.90;;;;;;5029496;28;20061;-81
2021/10/19 10:51:12;;;;;;;26.42;19.30;;;11.50;99.90;;;;;;5037794;28;20117;-81
2021/10/19 10:53:41;;;;;;;31.58;24.00;;;11.60;99.90;;;;;;5030895;28;20049;-81
2021/10/19 10:56:10;;;;;;;22.88;14.95;;;11.60;99.90;;;;;;5030316;28;20056;-81
2021/10/19 10:58:39;;;;;;;29.35;21.33;;;11.50;99.90;;;;;;5015765;28;20522;-81
2021/10/19 11:01:32;;;;;;;20.98;15.57;;;11.50;99.90;;;;;;5048112;28;20480;-81
2021/10/19 11:04:07;;;;;;;24.05;17.27;;;11.50;99.90;;;;;;5013583;28;20098;-81
2021/10/19 11:06:36;;;;;;;25.85;19.02;;;11.60;99.90;;;;;;5055958;28;20045;-81
2021/10/19 11:09:13;;;;;;;22.67;16.02;;;11.60;99.90;;;;;;5026742;28;20544;-81
2021/10/19 11:11:45;;;;;;;22.40;15.25;;;11.60;99.90;;;;;;5028239;28;20053;-82
2021/10/19 11:14:14;;;;;;;20.00;14.82;;;11.60;99.90;;;;;;5004614;28;20088;-81
2021/10/19 11:16:44;;;;;;;19.67;13.82;;;11.60;99.90;;;;;;5028760;28;20045;-81
2021/10/19 11:19:24;;;;;;;20.95;14.55;;;11.60;99.90;;;;;;5024174;28;20110;-80
2021/10/19 11:21:55;;;;;;;19.48;13.88;;;11.60;99.90;;;;;;5044026;28;20040;-82
2021/10/19 11:24:25;;;;;;;40.75;28.73;;;11.70;99.90;;;;;;5026128;28;20047;-81
2021/10/19 11:26:53;;;;;;;34.47;25.02;;;11.80;99.90;;;;;;5045283;28;20055;-82
2021/10/19 11:29:21;;;;;;;25.95;19.60;;;11.80;99.90;;;;;;5025195;28;20045;-80
2021/10/19 11:31:52;;;;;;;19.67;15.75;;;11.80;99.90;;;;;;5028190;28;20052;-81
2021/10/19 11:34:19;;;;;;;17.15;13.52;;;11.90;99.90;;;;;;5012914;28;20060;-81
2021/10/19 11:36:51;;;;;;;24.38;19.20;;;11.90;99.90;;;;;;5026886;28;20552;-81
2021/10/19 11:39:18;;;;;;;15.35;13.40;;;12.00;99.90;;;;;;5028808;28;20037;-79
2021/10/19 11:42:00;;;;;;;13.13;11.07;;;12.10;99.90;;;;;;5009197;28;20332;-81
2021/10/19 11:44:32;;;;;;;13.52;10.63;;;12.10;99.90;;;;;;5025467;28;20041;-80
2021/10/19 11:47:01;;;;;;;18.48;13.70;;;12.10;99.90;;;;;;5041124;28;20181;-81
2021/10/19 11:49:30;;;;;;;10.55;9.55;;;12.20;99.90;;;;;;5009111;28;20622;-81
2021/10/19 11:51:58;;;;;;;13.15;11.65;;;12.20;99.90;;;;;;5044198;28;20053;-81
2021/10/19 11:54:25;;;;;;;17.05;12.40;;;12.20;99.90;;;;;;5012385;28;20060;-82
2021/10/19 11:56:55;;;;;;;15.40;13.90;;;12.20;99.90;;;;;;5022835;28;20046;-81
2021/10/19 11:59:22;;;;;;;16.42;14.25;;;12.20;99.90;;;;;;5016425;28;20066;-80
2021/10/19 12:01:53;;;;;;;13.75;11.02;;;12.20;99.90;;;;;;5027464;28;20554;-81
2021/10/19 12:04:25;;;;;;;13.98;10.77;;;12.20;99.90;;;;;;5024696;28;20040;-81
2021/10/19 12:06:52;;;;;;;16.85;11.30;;;12.20;99.90;;;;;;5003515;28;20068;-80
2021/10/19 12:09:22;;;;;;;18.90;13.50;;;12.10;99.90;;;;;;5009385;28;20045;-81
2021/10/19 12:11:57;;;;;;;15.57;12.20;;;12.10;99.90;;;;;;5021921;28;20041;-82
2021/10/19 12:14:32;;;;;;;17.17;13.80;;;12.00;99.90;;;;;;5010058;28;20520;-81
2021/10/19 12:17:01;;;;;;;17.30;13.80;;;12.10;99.90;;;;;;5007121;28;20045;-82
2021/10/19 12:19:28;;;;;;;18.55;13.77;;;12.00;99.90;;;;;;5027494;28;20064;-81
2021/10/19 12:21:58;;;;;;;19.52;14.27;;;12.10;99.90;;;;;;5012056;28;20128;-80
2021/10/19 12:24:25;;;;;;;19.55;15.80;;;12.10;99.90;;;;;;5012371;28;20045;-80
2021/10/19 12:27:04;;;;;;;18.83;15.13;;;12.10;99.90;;;;;;5023079;28;20051;-80
2021/10/19 12:29:33;;;;;;;20.88;14.65;;;12.10;99.90;;;;;;5028988;28;20041;-81
2021/10/19 12:32:03;;;;;;;19.08;14.57;;;12.10;99.90;;;;;;5044032;28;20118;-80
2021/10/19 12:34:31;;;;;;;21.33;15.93;;;12.10;99.90;;;;;;5027900;28;20556;-80